sensor_id;sensor_type;location;lat;lon;timestamp;pressure;altitude;pressure_sealevel;temperature;humidity
34674;BME280;20879;55.668;37.858;2023-02-28T00:00:16;100265.66;;;-8.14;92.96
34674;BME280;20879;55.668;37.858;2023-02-28T00:02:51;100228.13;;;-8.36;93.15
34674;BME280;20879;55.668;37.858;2023-02-28T00:05:22;100252.66;;;-8.20;93.34
34674;BME280;20879;55.668;37.858;2023-02-28T00:07:52;100245.66;;;-8.13;93.41
34674;BME280;20879;55.668;37.858;2023-02-28T00:10:24;100240.22;;;-8.19;93.07
34674;BME280;20879;55.668;37.858;2023-02-28T00:12:55;100243.22;;;-8.11;93.53
34674;BME280;20879;55.668;37.858;2023-02-28T00:15:27;100234.53;;;-8.16;92.81
34674;BME280;20879;55.668;37.858;2023-02-28T00:17:59;100234.97;;;-8.22;93.36
34674;BME280;20879;55.668;37.858;2023-02-28T00:20:29;100238.34;;;-8.21;93.24
34674;BME280;20879;55.668;37.858;2023-02-28T00:22:58;100224.00;;;-8.36;93.21
34674;BME280;20879;55.668;37.858;2023-02-28T00:25:27;100239.59;;;-8.28;92.88
34674;BME280;20879;55.668;37.858;2023-02-28T00:27:57;100227.47;;;-8.34;93.28
34674;BME280;20879;55.668;37.858;2023-02-28T00:30:28;100235.22;;;-8.31;93.23
34674;BME280;20879;55.668;37.858;2023-02-28T00:32:57;100229.13;;;-8.34;93.33
34674;BME280;20879;55.668;37.858;2023-02-28T00:35:27;100226.28;;;-8.39;93.23
34674;BME280;20879;55.668;37.858;2023-02-28T00:37:56;100240.28;;;-8.43;93.51
34674;BME280;20879;55.668;37.858;2023-02-28T00:40:27;100235.94;;;-8.45;93.54
34674;BME280;20879;55.668;37.858;2023-02-28T00:42:56;100229.84;;;-8.49;93.29
34674;BME280;20879;55.668;37.858;2023-02-28T00:45:27;100222.88;;;-8.53;93.59
34674;BME280;20879;55.668;37.858;2023-02-28T00:47:57;100225.63;;;-8.62;93.80
34674;BME280;20879;55.668;37.858;2023-02-28T00:50:26;100218.94;;;-8.61;93.61
34674;BME280;20879;55.668;37.858;2023-02-28T00:52:56;100203.81;;;-8.74;94.38
34674;BME280;20879;55.668;37.858;2023-02-28T00:55:26;100152.00;;;-8.98;94.10
34674;BME280;20879;55.668;37.858;2023-02-28T00:57:55;100192.56;;;-8.68;94.57
34674;BME280;20879;55.668;37.858;2023-02-28T01:00:25;100188.00;;;-8.73;94.15
34674;BME280;20879;55.668;37.858;2023-02-28T01:02:56;100189.75;;;-8.72;94.10
34674;BME280;20879;55.668;37.858;2023-02-28T01:05:25;100188.00;;;-8.73;94.43
34674;BME280;20879;55.668;37.858;2023-02-28T01:07:54;100193.88;;;-8.73;94.08
34674;BME280;20879;55.668;37.858;2023-02-28T01:10:25;100202.94;;;-8.75;94.17
34674;BME280;20879;55.668;37.858;2023-02-28T01:12:57;100195.00;;;-8.81;94.41
34674;BME280;20879;55.668;37.858;2023-02-28T01:15:26;100188.66;;;-8.88;94.75
34674;BME280;20879;55.668;37.858;2023-02-28T01:17:58;100189.63;;;-8.86;94.54
34674;BME280;20879;55.668;37.858;2023-02-28T01:20:30;100181.13;;;-8.88;94.73
34674;BME280;20879;55.668;37.858;2023-02-28T01:23:01;100179.97;;;-8.93;94.95
34674;BME280;20879;55.668;37.858;2023-02-28T01:25:35;100170.25;;;-9.00;94.90
34674;BME280;20879;55.668;37.858;2023-02-28T01:28:05;100158.34;;;-9.03;95.27
34674;BME280;20879;55.668;37.858;2023-02-28T01:30:34;100143.94;;;-9.05;95.05
34674;BME280;20879;55.668;37.858;2023-02-28T01:33:06;100156.72;;;-9.02;94.71
34674;BME280;20879;55.668;37.858;2023-02-28T01:35:41;100147.22;;;-9.06;94.77
34674;BME280;20879;55.668;37.858;2023-02-28T01:38:10;100139.94;;;-9.03;95.00
34674;BME280;20879;55.668;37.858;2023-02-28T01:40:48;100134.13;;;-9.02;94.77
34674;BME280;20879;55.668;37.858;2023-02-28T01:43:26;100121.47;;;-9.04;94.88
34674;BME280;20879;55.668;37.858;2023-02-28T01:45:56;100129.75;;;-9.05;94.40
34674;BME280;20879;55.668;37.858;2023-02-28T01:48:32;100122.03;;;-9.08;94.19
34674;BME280;20879;55.668;37.858;2023-02-28T01:51:04;100122.03;;;-9.08;94.47
34674;BME280;20879;55.668;37.858;2023-02-28T01:53:39;100106.47;;;-9.27;94.24
34674;BME280;20879;55.668;37.858;2023-02-28T01:56:13;100106.13;;;-9.20;94.29
34674;BME280;20879;55.668;37.858;2023-02-28T01:58:50;100107.69;;;-9.22;94.29
34674;BME280;20879;55.668;37.858;2023-02-28T02:01:21;100104.81;;;-9.27;94.61
34674;BME280;20879;55.668;37.858;2023-02-28T02:03:56;100105.38;;;-9.31;94.30
34674;BME280;20879;55.668;37.858;2023-02-28T02:06:36;100094.88;;;-9.25;94.55
34674;BME280;20879;55.668;37.858;2023-02-28T02:09:10;100087.94;;;-9.29;94.12
34674;BME280;20879;55.668;37.858;2023-02-28T02:11:41;100096.63;;;-9.24;94.43
34674;BME280;20879;55.668;37.858;2023-02-28T02:14:31;100098.84;;;-9.29;94.09
34674;BME280;20879;55.668;37.858;2023-02-28T02:17:16;100092.16;;;-9.28;93.97
34674;BME280;20879;55.668;37.858;2023-02-28T02:25:53;100078.00;;;-9.28;94.05
34674;BME280;20879;55.668;37.858;2023-02-28T02:28:41;100065.72;;;-9.37;94.25
34674;BME280;20879;55.668;37.858;2023-02-28T02:31:38;100073.34;;;-9.35;94.50
34674;BME280;20879;55.668;37.858;2023-02-28T02:34:37;100041.94;;;-9.54;94.56
34674;BME280;20879;55.668;37.858;2023-02-28T02:37:17;100055.59;;;-9.50;94.87
34674;BME280;20879;55.668;37.858;2023-02-28T02:40:00;100062.63;;;-9.44;94.61
34674;BME280;20879;55.668;37.858;2023-02-28T02:42:40;100063.63;;;-9.42;94.22
34674;BME280;20879;55.668;37.858;2023-02-28T02:45:21;100056.31;;;-9.39;94.46
34674;BME280;20879;55.668;37.858;2023-02-28T02:47:55;100048.69;;;-9.41;94.21
34674;BME280;20879;55.668;37.858;2023-02-28T02:50:34;100052.81;;;-9.41;94.53
34674;BME280;20879;55.668;37.858;2023-02-28T02:53:07;100045.44;;;-9.40;94.37
34674;BME280;20879;55.668;37.858;2023-02-28T02:55:41;100039.53;;;-9.40;94.63
34674;BME280;20879;55.668;37.858;2023-02-28T02:58:16;100041.06;;;-9.42;94.47
34674;BME280;20879;55.668;37.858;2023-02-28T03:00:50;100024.63;;;-9.51;94.53
34674;BME280;20879;55.668;37.858;2023-02-28T03:03:22;100032.09;;;-9.39;94.58
34674;BME280;20879;55.668;37.858;2023-02-28T03:06:03;100007.69;;;-9.41;94.38
34674;BME280;20879;55.668;37.858;2023-02-28T03:08:39;99982.09;;;-9.49;94.59
34674;BME280;20879;55.668;37.858;2023-02-28T03:11:14;100021.63;;;-9.33;94.62
34674;BME280;20879;55.668;37.858;2023-02-28T03:14:10;100011.81;;;-9.30;94.53
34674;BME280;20879;55.668;37.858;2023-02-28T03:17:09;100011.81;;;-9.30;94.68
34674;BME280;20879;55.668;37.858;2023-02-28T03:19:52;100012.00;;;-9.27;94.20
34674;BME280;20879;55.668;37.858;2023-02-28T03:22:44;99977.03;;;-9.37;94.56
34674;BME280;20879;55.668;37.858;2023-02-28T03:25:23;99982.84;;;-9.38;94.60
34674;BME280;20879;55.668;37.858;2023-02-28T03:28:02;99998.41;;;-9.31;94.30
34674;BME280;20879;55.668;37.858;2023-02-28T03:30:42;99969.59;;;-9.24;94.78
34674;BME280;20879;55.668;37.858;2023-02-28T03:33:21;99957.41;;;-9.31;94.25
34674;BME280;20879;55.668;37.858;2023-02-28T03:35:58;99964.34;;;-9.27;94.42
34674;BME280;20879;55.668;37.858;2023-02-28T03:38:34;99979.47;;;-9.14;94.41
34674;BME280;20879;55.668;37.858;2023-02-28T03:41:10;99967.59;;;-9.16;93.92
34674;BME280;20879;55.668;37.858;2023-02-28T03:43:46;99959.19;;;-9.17;94.14
34674;BME280;20879;55.668;37.858;2023-02-28T03:46:22;99933.97;;;-9.32;94.03
34674;BME280;20879;55.668;37.858;2023-02-28T03:49:02;99939.13;;;-9.17;94.47
34674;BME280;20879;55.668;37.858;2023-02-28T03:51:36;99948.59;;;-9.13;93.82
34674;BME280;20879;55.668;37.858;2023-02-28T03:54:11;99940.13;;;-9.15;93.82
34674;BME280;20879;55.668;37.858;2023-02-28T03:56:46;99911.69;;;-9.27;94.36
34674;BME280;20879;55.668;37.858;2023-02-28T03:59:25;99935.69;;;-9.05;94.07
34674;BME280;20879;55.668;37.858;2023-02-28T04:01:57;99896.25;;;-9.33;93.94
34674;BME280;20879;55.668;37.858;2023-02-28T04:04:27;99928.22;;;-9.17;93.66
34674;BME280;20879;55.668;37.858;2023-02-28T04:07:01;99920.81;;;-9.16;93.52
34674;BME280;20879;55.668;37.858;2023-02-28T04:09:33;99915.78;;;-9.16;93.79
34674;BME280;20879;55.668;37.858;2023-02-28T04:12:02;99909.81;;;-9.18;93.89
34674;BME280;20879;55.668;37.858;2023-02-28T04:14:32;99898.81;;;-9.06;93.76
34674;BME280;20879;55.668;37.858;2023-02-28T04:17:06;99906.16;;;-9.09;93.32
34674;BME280;20879;55.668;37.858;2023-02-28T04:19:35;99876.84;;;-9.10;93.48
34674;BME280;20879;55.668;37.858;2023-02-28T04:22:10;99892.84;;;-9.08;93.67
34674;BME280;20879;55.668;37.858;2023-02-28T04:24:47;99882.53;;;-9.13;93.42
34674;BME280;20879;55.668;37.858;2023-02-28T04:27:16;99898.81;;;-9.06;93.63
34674;BME280;20879;55.668;37.858;2023-02-28T04:29:45;99892.28;;;-9.04;93.08
34674;BME280;20879;55.668;37.858;2023-02-28T04:32:14;99888.63;;;-8.96;93.45
34674;BME280;20879;55.668;37.858;2023-02-28T04:34:44;99879.94;;;-9.01;93.14
34674;BME280;20879;55.668;37.858;2023-02-28T04:37:13;99895.88;;;-8.87;92.95
34674;BME280;20879;55.668;37.858;2023-02-28T04:39:42;99892.03;;;-8.82;92.59
34674;BME280;20879;55.668;37.858;2023-02-28T04:42:14;99883.16;;;-8.77;92.49
34674;BME280;20879;55.668;37.858;2023-02-28T04:44:44;99867.22;;;-8.77;92.03
34674;BME280;20879;55.668;37.858;2023-02-28T04:47:13;99872.94;;;-8.67;91.80
34674;BME280;20879;55.668;37.858;2023-02-28T04:49:43;99865.91;;;-8.59;91.55
34674;BME280;20879;55.668;37.858;2023-02-28T04:52:12;99843.31;;;-8.72;91.16
34674;BME280;20879;55.668;37.858;2023-02-28T04:54:41;99842.03;;;-8.52;90.98
34674;BME280;20879;55.668;37.858;2023-02-28T04:57:10;99849.84;;;-8.48;90.65
34674;BME280;20879;55.668;37.858;2023-02-28T04:59:47;99843.44;;;-8.43;90.04
34674;BME280;20879;55.668;37.858;2023-02-28T05:02:16;99797.13;;;-8.61;89.74
34674;BME280;20879;55.668;37.858;2023-02-28T05:04:47;99801.50;;;-8.30;89.15
34674;BME280;20879;55.668;37.858;2023-02-28T05:07:17;99814.06;;;-8.17;88.93
34674;BME280;20879;55.668;37.858;2023-02-28T05:09:46;99813.31;;;-8.01;87.69
34674;BME280;20879;55.668;37.858;2023-02-28T05:12:15;99833.50;;;-7.86;86.49
34674;BME280;20879;55.668;37.858;2023-02-28T05:14:44;99816.66;;;-7.87;85.39
34674;BME280;20879;55.668;37.858;2023-02-28T05:17:21;99814.06;;;-7.88;85.57
34674;BME280;20879;55.668;37.858;2023-02-28T05:19:55;99792.66;;;-7.82;85.18
34674;BME280;20879;55.668;37.858;2023-02-28T05:22:46;99785.53;;;-7.46;84.74
34674;BME280;20879;55.668;37.858;2023-02-28T05:25:18;99740.59;;;-7.55;83.09
34674;BME280;20879;55.668;37.858;2023-02-28T05:27:48;99773.94;;;-7.14;82.77
34674;BME280;20879;55.668;37.858;2023-02-28T05:30:22;99773.44;;;-7.23;80.88
34674;BME280;20879;55.668;37.858;2023-02-28T05:32:54;99760.75;;;-7.10;81.21
34674;BME280;20879;55.668;37.858;2023-02-28T05:35:24;99715.34;;;-7.26;80.48
34674;BME280;20879;55.668;37.858;2023-02-28T05:37:53;99729.50;;;-7.28;80.40
34674;BME280;20879;55.668;37.858;2023-02-28T05:40:23;99736.63;;;-7.21;79.36
34674;BME280;20879;55.668;37.858;2023-02-28T05:42:58;99724.97;;;-7.19;79.94
34674;BME280;20879;55.668;37.858;2023-02-28T05:45:28;99736.88;;;-7.16;79.66
34674;BME280;20879;55.668;37.858;2023-02-28T05:48:05;99720.31;;;-7.13;78.93
34674;BME280;20879;55.668;37.858;2023-02-28T05:50:34;99729.38;;;-7.00;79.00
34674;BME280;20879;55.668;37.858;2023-02-28T05:53:04;99702.66;;;-6.98;78.16
34674;BME280;20879;55.668;37.858;2023-02-28T05:55:33;99691.41;;;-6.88;77.59
34674;BME280;20879;55.668;37.858;2023-02-28T05:58:04;99695.22;;;-6.80;76.79
34674;BME280;20879;55.668;37.858;2023-02-28T06:00:33;99715.69;;;-6.74;76.61
34674;BME280;20879;55.668;37.858;2023-02-28T06:03:04;99699.19;;;-6.69;76.88
34674;BME280;20879;55.668;37.858;2023-02-28T06:05:33;99690.19;;;-6.48;76.35
34674;BME280;20879;55.668;37.858;2023-02-28T06:08:03;99697.88;;;-6.45;75.36
34674;BME280;20879;55.668;37.858;2023-02-28T06:10:33;99693.78;;;-6.43;75.04
34674;BME280;20879;55.668;37.858;2023-02-28T06:13:03;99670.66;;;-6.36;75.18
34674;BME280;20879;55.668;37.858;2023-02-28T06:15:32;99681.03;;;-6.30;74.76
34674;BME280;20879;55.668;37.858;2023-02-28T06:18:04;99657.66;;;-6.27;73.84
34674;BME280;20879;55.668;37.858;2023-02-28T06:20:38;99645.91;;;-6.27;72.82
34674;BME280;20879;55.668;37.858;2023-02-28T06:23:09;99611.75;;;-6.55;72.92
34674;BME280;20879;55.668;37.858;2023-02-28T06:25:38;99616.56;;;-6.26;73.05
34674;BME280;20879;55.668;37.858;2023-02-28T06:28:07;99619.13;;;-6.08;72.89
34674;BME280;20879;55.668;37.858;2023-02-28T06:30:37;99619.25;;;-6.05;72.13
34674;BME280;20879;55.668;37.858;2023-02-28T06:33:08;99625.97;;;-5.88;70.96
34674;BME280;20879;55.668;37.858;2023-02-28T06:35:43;99592.50;;;-5.31;70.96
34674;BME280;20879;55.668;37.858;2023-02-28T06:38:13;99626.72;;;-5.18;69.46
34674;BME280;20879;55.668;37.858;2023-02-28T06:40:42;99603.66;;;-5.26;69.12
34674;BME280;20879;55.668;37.858;2023-02-28T06:43:18;99608.22;;;-5.37;68.90
34674;BME280;20879;55.668;37.858;2023-02-28T06:45:55;99566.75;;;-5.24;68.98
34674;BME280;20879;55.668;37.858;2023-02-28T06:48:27;99625.16;;;-5.16;67.48
34674;BME280;20879;55.668;37.858;2023-02-28T06:51:04;99591.03;;;-5.26;66.50
34674;BME280;20879;55.668;37.858;2023-02-28T06:53:35;99595.97;;;-4.92;66.58
34674;BME280;20879;55.668;37.858;2023-02-28T06:56:06;99597.16;;;-4.83;66.98
34674;BME280;20879;55.668;37.858;2023-02-28T06:58:36;99568.50;;;-4.64;66.39
34674;BME280;20879;55.668;37.858;2023-02-28T07:01:06;99559.31;;;-4.82;65.34
34674;BME280;20879;55.668;37.858;2023-02-28T07:03:38;99538.66;;;-4.73;66.32
34674;BME280;20879;55.668;37.858;2023-02-28T07:06:08;99529.03;;;-4.62;65.38
34674;BME280;20879;55.668;37.858;2023-02-28T07:08:44;99499.59;;;-4.41;66.49
34674;BME280;20879;55.668;37.858;2023-02-28T07:11:13;99530.91;;;-4.37;65.20
34674;BME280;20879;55.668;37.858;2023-02-28T07:13:43;99524.63;;;-4.26;65.91
34674;BME280;20879;55.668;37.858;2023-02-28T07:16:14;99505.44;;;-4.21;65.38
34674;BME280;20879;55.668;37.858;2023-02-28T07:18:45;99518.84;;;-4.23;65.29
34674;BME280;20879;55.668;37.858;2023-02-28T07:21:19;99496.94;;;-4.23;65.54
34674;BME280;20879;55.668;37.858;2023-02-28T07:23:48;99509.03;;;-4.15;65.79
34674;BME280;20879;55.668;37.858;2023-02-28T07:26:19;99499.09;;;-4.11;65.38
34674;BME280;20879;55.668;37.858;2023-02-28T07:28:49;99482.63;;;-4.01;65.08
34674;BME280;20879;55.668;37.858;2023-02-28T07:31:18;99478.88;;;-4.11;65.22
34674;BME280;20879;55.668;37.858;2023-02-28T07:33:49;99465.44;;;-4.10;65.31
34674;BME280;20879;55.668;37.858;2023-02-28T07:36:20;99479.78;;;-3.88;66.05
34674;BME280;20879;55.668;37.858;2023-02-28T07:38:49;99433.78;;;-3.77;65.64
34674;BME280;20879;55.668;37.858;2023-02-28T07:41:21;99460.16;;;-3.71;65.09
34674;BME280;20879;55.668;37.858;2023-02-28T07:44:00;99473.22;;;-3.82;65.50
34674;BME280;20879;55.668;37.858;2023-02-28T07:46:30;99455.56;;;-3.81;66.17
34674;BME280;20879;55.668;37.858;2023-02-28T07:49:11;99399.47;;;-3.93;66.00
34674;BME280;20879;55.668;37.858;2023-02-28T07:51:40;99421.03;;;-3.80;66.33
34674;BME280;20879;55.668;37.858;2023-02-28T07:54:10;99439.28;;;-3.65;66.87
34674;BME280;20879;55.668;37.858;2023-02-28T07:56:39;99443.41;;;-3.22;66.62
34674;BME280;20879;55.668;37.858;2023-02-28T07:59:08;99448.47;;;-3.22;65.68
34674;BME280;20879;55.668;37.858;2023-02-28T08:01:37;99452.78;;;-3.19;66.55
34674;BME280;20879;55.668;37.858;2023-02-28T08:04:14;99433.91;;;-3.03;66.60
34674;BME280;20879;55.668;37.858;2023-02-28T08:06:43;99462.91;;;-2.71;66.18
34674;BME280;20879;55.668;37.858;2023-02-28T08:09:12;99448.66;;;-2.67;66.40
34674;BME280;20879;55.668;37.858;2023-02-28T08:11:42;99429.50;;;-2.59;66.67
34674;BME280;20879;55.668;37.858;2023-02-28T08:14:16;99429.19;;;-2.42;66.07
34674;BME280;20879;55.668;37.858;2023-02-28T08:16:45;99428.06;;;-2.51;66.44
34674;BME280;20879;55.668;37.858;2023-02-28T08:19:16;99415.69;;;-2.41;66.42
34674;BME280;20879;55.668;37.858;2023-02-28T08:21:46;99400.13;;;-2.52;66.20
34674;BME280;20879;55.668;37.858;2023-02-28T08:24:15;99421.31;;;-2.50;66.64
34674;BME280;20879;55.668;37.858;2023-02-28T08:26:44;99399.69;;;-2.66;67.13
34674;BME280;20879;55.668;37.858;2023-02-28T08:29:13;99386.88;;;-2.43;67.35
34674;BME280;20879;55.668;37.858;2023-02-28T08:31:43;99380.19;;;-2.41;66.87
34674;BME280;20879;55.668;37.858;2023-02-28T08:34:14;99367.25;;;-2.22;66.83
34674;BME280;20879;55.668;37.858;2023-02-28T08:36:47;99356.75;;;-2.05;66.53
34674;BME280;20879;55.668;37.858;2023-02-28T08:39:16;99336.03;;;-1.90;66.28
34674;BME280;20879;55.668;37.858;2023-02-28T08:41:46;99357.91;;;-1.65;66.39
34674;BME280;20879;55.668;37.858;2023-02-28T08:44:32;99359.13;;;-1.51;64.79
34674;BME280;20879;55.668;37.858;2023-02-28T08:47:02;99360.13;;;-1.46;64.94
34674;BME280;20879;55.668;37.858;2023-02-28T08:49:31;99381.19;;;-1.50;64.08
34674;BME280;20879;55.668;37.858;2023-02-28T08:52:08;99401.00;;;-1.68;64.56
34674;BME280;20879;55.668;37.858;2023-02-28T08:54:37;99370.31;;;-1.74;64.74
34674;BME280;20879;55.668;37.858;2023-02-28T08:57:06;99416.84;;;-2.04;65.23
34674;BME280;20879;55.668;37.858;2023-02-28T08:59:42;99411.38;;;-2.17;65.87
34674;BME280;20879;55.668;37.858;2023-02-28T09:02:13;99419.72;;;-2.21;66.34
34674;BME280;20879;55.668;37.858;2023-02-28T09:04:42;99384.00;;;-2.27;66.72
34674;BME280;20879;55.668;37.858;2023-02-28T09:07:14;99401.44;;;-2.11;67.29
34674;BME280;20879;55.668;37.858;2023-02-28T09:09:43;99385.50;;;-2.34;67.46
34674;BME280;20879;55.668;37.858;2023-02-28T09:12:34;99347.28;;;-2.40;67.82
34674;BME280;20879;55.668;37.858;2023-02-28T09:15:05;99376.53;;;-2.50;68.53
34674;BME280;20879;55.668;37.858;2023-02-28T09:17:36;99363.50;;;-2.62;69.53
34674;BME280;20879;55.668;37.858;2023-02-28T09:20:06;99342.81;;;-2.74;70.36
34674;BME280;20879;55.668;37.858;2023-02-28T09:22:38;99345.69;;;-2.64;70.47
34674;BME280;20879;55.668;37.858;2023-02-28T09:25:07;99312.56;;;-2.68;70.03
34674;BME280;20879;55.668;37.858;2023-02-28T09:27:36;99308.81;;;-2.81;70.42
34674;BME280;20879;55.668;37.858;2023-02-28T09:30:12;99312.31;;;-2.77;70.64
34674;BME280;20879;55.668;37.858;2023-02-28T09:32:44;99320.28;;;-2.65;70.15
34674;BME280;20879;55.668;37.858;2023-02-28T09:35:22;99329.09;;;-2.54;70.42
34674;BME280;20879;55.668;37.858;2023-02-28T09:37:53;99327.56;;;-2.49;70.50
34674;BME280;20879;55.668;37.858;2023-02-28T09:40:24;99314.25;;;-2.41;70.53
34674;BME280;20879;55.668;37.858;2023-02-28T09:42:57;99339.00;;;-2.34;70.22
34674;BME280;20879;55.668;37.858;2023-02-28T09:45:30;99329.19;;;-2.51;70.50
34674;BME280;20879;55.668;37.858;2023-02-28T09:48:04;99344.78;;;-2.38;71.01
34674;BME280;20879;55.668;37.858;2023-02-28T09:50:40;99346.97;;;-2.22;71.03
34674;BME280;20879;55.668;37.858;2023-02-28T09:53:18;99331.34;;;-2.07;70.50
34674;BME280;20879;55.668;37.858;2023-02-28T09:55:50;99318.88;;;-1.99;70.31
34674;BME280;20879;55.668;37.858;2023-02-28T09:58:32;99326.16;;;-1.81;70.04
34674;BME280;20879;55.668;37.858;2023-02-28T10:01:07;99319.56;;;-1.74;70.05
34674;BME280;20879;55.668;37.858;2023-02-28T10:03:41;99286.03;;;-1.63;69.59
34674;BME280;20879;55.668;37.858;2023-02-28T10:06:15;99278.91;;;-1.76;69.50
34674;BME280;20879;55.668;37.858;2023-02-28T10:09:02;99282.84;;;-1.87;69.79
34674;BME280;20879;55.668;37.858;2023-02-28T10:11:33;99288.16;;;-2.08;70.30
34674;BME280;20879;55.668;37.858;2023-02-28T10:14:10;99285.88;;;-2.30;71.43
34674;BME280;20879;55.668;37.858;2023-02-28T10:16:43;99162.22;;;-2.38;71.96
34674;BME280;20879;55.668;37.858;2023-02-28T10:19:27;99239.91;;;-2.10;71.42
34674;BME280;20879;55.668;37.858;2023-02-28T10:22:11;99282.75;;;-2.21;71.82
34674;BME280;20879;55.668;37.858;2023-02-28T10:24:46;99275.78;;;-2.28;72.24
34674;BME280;20879;55.668;37.858;2023-02-28T10:27:22;99216.13;;;-2.44;72.38
34674;BME280;20879;55.668;37.858;2023-02-28T10:29:53;99247.19;;;-2.22;72.09
34674;BME280;20879;55.668;37.858;2023-02-28T10:32:24;99232.88;;;-2.20;71.93
34674;BME280;20879;55.668;37.858;2023-02-28T10:34:57;99239.66;;;-2.19;72.25
34674;BME280;20879;55.668;37.858;2023-02-28T10:37:40;99214.63;;;-2.37;72.47
34674;BME280;20879;55.668;37.858;2023-02-28T10:40:29;99255.81;;;-2.16;72.12
34674;BME280;20879;55.668;37.858;2023-02-28T10:43:17;99237.06;;;-2.22;72.28
34674;BME280;20879;55.668;37.858;2023-02-28T10:46:02;99188.13;;;-2.49;72.37
34674;BME280;20879;55.668;37.858;2023-02-28T10:48:37;99234.09;;;-2.36;72.90
34674;BME280;20879;55.668;37.858;2023-02-28T10:51:10;99248.47;;;-2.37;73.55
34674;BME280;20879;55.668;37.858;2023-02-28T10:53:48;99225.84;;;-2.29;73.65
34674;BME280;20879;55.668;37.858;2023-02-28T10:56:30;99225.53;;;-2.41;73.65
34674;BME280;20879;55.668;37.858;2023-02-28T10:59:27;99215.63;;;-2.32;73.46
34674;BME280;20879;55.668;37.858;2023-02-28T11:01:57;99219.06;;;-2.30;73.42
34674;BME280;20879;55.668;37.858;2023-02-28T11:04:35;99216.28;;;-2.39;73.76
34674;BME280;20879;55.668;37.858;2023-02-28T11:07:17;99186.22;;;-2.56;73.88
34674;BME280;20879;55.668;37.858;2023-02-28T11:09:56;99171.03;;;-2.25;73.92
34674;BME280;20879;55.668;37.858;2023-02-28T11:12:30;99212.94;;;-2.38;74.35
34674;BME280;20879;55.668;37.858;2023-02-28T11:15:21;99187.28;;;-2.48;74.61
34674;BME280;20879;55.668;37.858;2023-02-28T11:17:54;99170.63;;;-2.39;74.60
34674;BME280;20879;55.668;37.858;2023-02-28T11:20:26;99207.69;;;-2.44;75.26
34674;BME280;20879;55.668;37.858;2023-02-28T11:22:58;99164.94;;;-2.61;75.27
34674;BME280;20879;55.668;37.858;2023-02-28T11:25:31;99166.38;;;-2.40;75.23
34674;BME280;20879;55.668;37.858;2023-02-28T11:28:24;99126.00;;;-2.34;75.33
34674;BME280;20879;55.668;37.858;2023-02-28T11:31:09;99189.19;;;-2.40;75.47
34674;BME280;20879;55.668;37.858;2023-02-28T11:33:48;99149.06;;;-2.55;76.49
34674;BME280;20879;55.668;37.858;2023-02-28T11:36:24;99185.31;;;-2.58;76.50
34674;BME280;20879;55.668;37.858;2023-02-28T11:38:56;99174.63;;;-2.48;76.82
34674;BME280;20879;55.668;37.858;2023-02-28T11:41:41;99184.13;;;-2.40;76.65
34674;BME280;20879;55.668;37.858;2023-02-28T11:44:31;99176.78;;;-2.31;77.04
34674;BME280;20879;55.668;37.858;2023-02-28T11:47:10;99162.53;;;-2.26;76.84
34674;BME280;20879;55.668;37.858;2023-02-28T11:49:53;99123.44;;;-2.34;76.69
34674;BME280;20879;55.668;37.858;2023-02-28T11:52:38;99158.59;;;-2.16;77.08
34674;BME280;20879;55.668;37.858;2023-02-28T11:55:17;99159.38;;;-2.17;76.94
34674;BME280;20879;55.668;37.858;2023-02-28T11:58:07;99154.50;;;-2.09;77.03
34674;BME280;20879;55.668;37.858;2023-02-28T12:01:04;99152.97;;;-2.04;76.83
34674;BME280;20879;55.668;37.858;2023-02-28T12:03:45;99160.50;;;-2.07;76.93
34674;BME280;20879;55.668;37.858;2023-02-28T12:06:27;99146.06;;;-2.10;76.90
34674;BME280;20879;55.668;37.858;2023-02-28T12:09:04;99152.81;;;-2.11;77.21
34674;BME280;20879;55.668;37.858;2023-02-28T12:11:48;99166.00;;;-2.24;78.27
34674;BME280;20879;55.668;37.858;2023-02-28T12:14:46;99132.19;;;-2.23;78.13
34674;BME280;20879;55.668;37.858;2023-02-28T12:17:33;99139.81;;;-2.21;79.14
34674;BME280;20879;55.668;37.858;2023-02-28T12:20:16;99147.50;;;-2.18;80.08
34674;BME280;20879;55.668;37.858;2023-02-28T12:22:56;99129.75;;;-2.18;80.35
34674;BME280;20879;55.668;37.858;2023-02-28T12:25:54;99116.38;;;-2.13;80.45
34674;BME280;20879;55.668;37.858;2023-02-28T12:28:30;99090.41;;;-2.36;80.43
34674;BME280;20879;55.668;37.858;2023-02-28T12:31:04;99131.28;;;-2.25;81.09
34674;BME280;20879;55.668;37.858;2023-02-28T12:33:41;99137.09;;;-2.29;81.16
34674;BME280;20879;55.668;37.858;2023-02-28T12:36:15;99117.31;;;-2.42;82.25
34674;BME280;20879;55.668;37.858;2023-02-28T12:38:53;99102.81;;;-2.47;82.09
34674;BME280;20879;55.668;37.858;2023-02-28T12:41:28;99107.88;;;-2.47;82.30
34674;BME280;20879;55.668;37.858;2023-02-28T12:44:02;99114.75;;;-2.42;82.71
34674;BME280;20879;55.668;37.858;2023-02-28T12:53:08;99114.63;;;-2.77;83.12
34674;BME280;20879;55.668;37.858;2023-02-28T12:55:42;99069.34;;;-2.97;84.03
34674;BME280;20879;55.668;37.858;2023-02-28T12:58:20;99062.53;;;-2.98;85.84
34674;BME280;20879;55.668;37.858;2023-02-28T13:01:28;99063.22;;;-2.73;86.21
34674;BME280;20879;55.668;37.858;2023-02-28T13:04:32;99034.56;;;-3.03;86.48
34674;BME280;20879;55.668;37.858;2023-02-28T13:07:20;99055.91;;;-2.63;86.30
34674;BME280;20879;55.668;37.858;2023-02-28T13:10:05;99045.88;;;-2.58;85.94
34674;BME280;20879;55.668;37.858;2023-02-28T13:12:36;99042.69;;;-2.51;86.24
34674;BME280;20879;55.668;37.858;2023-02-28T13:15:20;99031.75;;;-2.50;85.71
34674;BME280;20879;55.668;37.858;2023-02-28T13:17:53;99019.66;;;-2.60;85.82
34674;BME280;20879;55.668;37.858;2023-02-28T13:20:24;99033.06;;;-2.64;86.13
34674;BME280;20879;55.668;37.858;2023-02-28T13:22:55;99010.06;;;-2.72;86.02
34674;BME280;20879;55.668;37.858;2023-02-28T13:25:54;99040.81;;;-2.58;86.44
34674;BME280;20879;55.668;37.858;2023-02-28T13:34:35;99048.47;;;-2.56;86.40
34674;BME280;20879;55.668;37.858;2023-02-28T13:37:32;99007.72;;;-2.64;86.16
34674;BME280;20879;55.668;37.858;2023-02-28T13:40:29;99040.97;;;-2.53;86.11
34674;BME280;20879;55.668;37.858;2023-02-28T13:43:07;99039.97;;;-2.58;86.36
34674;BME280;20879;55.668;37.858;2023-02-28T13:46:05;99029.13;;;-2.53;86.31